Time;durP1;ratioP1;P1;durP2;ratioP2;P2;SDS_P1;SDS_P2;PMS_P1;PMS_P2;Temp;Humidity;BMP_temperature;BMP_pressure;BME280_temperature;BME280_humidity;BME280_pressure;Samples;Min_cycle;Max_cycle;Signal;HPM_P1;HPM_P2
2022/05/19 00:02:17;;;;;;;95.53;79.05;;;14.90;99.90;;;;;;5029446;28;20041;-59
2022/05/19 00:04:43;;;;;;;100.00;80.35;;;15.00;99.90;;;;;;5029636;28;20484;-59
2022/05/19 00:07:10;;;;;;;96.10;75.45;;;15.10;99.90;;;;;;5062494;28;20052;-59
2022/05/19 00:09:37;;;;;;;73.82;57.13;;;15.00;99.90;;;;;;5028577;28;20048;-59
2022/05/19 00:12:09;;;;;;;71.35;53.78;;;15.20;99.90;;;;;;5030767;28;20388;-59
2022/05/19 00:14:35;;;;;;;68.78;55.42;;;15.20;99.90;;;;;;5030573;28;20038;-59
2022/05/19 00:17:01;;;;;;;66.65;54.55;;;15.20;99.90;;;;;;5030668;28;20048;-59
2022/05/19 00:19:27;;;;;;;66.22;50.20;;;15.30;99.90;;;;;;5029163;28;20045;-59
2022/05/19 00:21:54;;;;;;;58.15;47.10;;;15.20;99.90;;;;;;5029386;28;20455;-59
2022/05/19 00:24:20;;;;;;;54.25;42.83;;;15.30;99.90;;;;;;5062486;28;20399;-59
2022/05/19 00:26:45;;;;;;;60.20;47.08;;;15.30;99.90;;;;;;5030568;28;20044;-59
2022/05/19 00:29:11;;;;;;;55.72;44.65;;;15.30;99.90;;;;;;5029260;28;20542;-59
2022/05/19 00:31:37;;;;;;;55.10;41.17;;;15.30;99.90;;;;;;5028942;28;20547;-59
2022/05/19 00:34:03;;;;;;;51.38;41.45;;;15.30;99.90;;;;;;5030591;28;20053;-59
2022/05/19 00:36:29;;;;;;;56.97;43.80;;;15.30;99.90;;;;;;5028838;28;20046;-59
2022/05/19 00:38:55;;;;;;;55.25;43.15;;;15.30;99.90;;;;;;5030322;28;20132;-59
2022/05/19 00:41:22;;;;;;;55.13;40.75;;;15.40;99.90;;;;;;5045405;28;20461;-59
2022/05/19 00:43:57;;;;;;;47.75;36.95;;;15.40;99.90;;;;;;5030406;28;20034;-59
2022/05/19 00:46:28;;;;;;;50.92;38.35;;;15.40;99.90;;;;;;5030367;28;20500;-60
2022/05/19 00:49:06;;;;;;;47.30;36.95;;;15.40;99.90;;;;;;5028684;28;20076;-60
2022/05/19 00:51:54;;;;;;;47.70;34.05;;;15.50;99.90;;;;;;5028621;28;20045;-60
2022/05/19 00:54:28;;;;;;;44.70;31.73;;;15.40;99.90;;;;;;5028503;28;20045;-60
2022/05/19 00:57:06;;;;;;;42.47;31.48;;;15.50;99.90;;;;;;5029903;28;20099;-60
2022/05/19 00:59:43;;;;;;;41.33;30.95;;;15.60;99.90;;;;;;5027942;28;20058;-60
2022/05/19 01:02:11;;;;;;;43.83;30.48;;;15.60;99.90;;;;;;5028653;28;20403;-60
2022/05/19 01:04:51;;;;;;;38.08;31.17;;;15.60;99.90;;;;;;5029901;28;20107;-60
2022/05/19 01:07:43;;;;;;;40.85;28.65;;;15.50;99.90;;;;;;5029972;28;20045;-60
2022/05/19 01:10:09;;;;;;;42.13;27.65;;;15.50;99.90;;;;;;5029529;28;20046;-60
2022/05/19 01:12:36;;;;;;;37.50;29.23;;;15.60;99.90;;;;;;5061973;28;20159;-60
2022/05/19 01:15:03;;;;;;;41.95;30.33;;;15.60;99.90;;;;;;5029679;28;20411;-60
2022/05/19 01:17:30;;;;;;;41.22;28.75;;;15.50;99.90;;;;;;5028118;28;20448;-60
2022/05/19 01:20:00;;;;;;;39.40;26.80;;;15.50;99.90;;;;;;5029921;28;20076;-60
2022/05/19 01:22:54;;;;;;;35.90;25.88;;;15.60;99.90;;;;;;5061630;28;20045;-60
2022/05/19 01:25:46;;;;;;;38.00;27.98;;;15.60;99.90;;;;;;5042808;28;20102;-60
2022/05/19 01:28:12;;;;;;;60.30;44.60;;;15.60;99.90;;;;;;5030234;28;20048;-60
2022/05/19 01:30:38;;;;;;;68.18;51.25;;;15.60;99.90;;;;;;5028272;28;20061;-60
2022/05/19 01:33:04;;;;;;;73.30;57.22;;;15.60;99.90;;;;;;5028555;28;20053;-60
2022/05/19 01:35:33;;;;;;;75.45;60.97;;;15.70;99.90;;;;;;5029670;28;20041;-60
2022/05/19 01:38:01;;;;;;;71.78;58.85;;;15.60;99.90;;;;;;5028439;28;20392;-60
2022/05/19 01:40:35;;;;;;;73.80;60.90;;;15.60;99.90;;;;;;5029488;28;20045;-60
2022/05/19 01:43:20;;;;;;;69.68;55.88;;;15.50;99.90;;;;;;5028232;28;20033;-60
2022/05/19 01:46:09;;;;;;;61.97;48.83;;;15.50;99.90;;;;;;5029886;28;20041;-60
2022/05/19 01:48:37;;;;;;;57.15;46.50;;;15.40;99.90;;;;;;5029844;28;20057;-60
2022/05/19 01:51:25;;;;;;;60.20;50.63;;;15.40;99.90;;;;;;5029516;28;20496;-60
2022/05/19 01:54:10;;;;;;;64.80;53.22;;;15.50;99.90;;;;;;5029867;28;20120;-60
2022/05/19 01:56:59;;;;;;;70.05;56.90;;;15.40;99.90;;;;;;5028147;28;20050;-59
2022/05/19 01:59:45;;;;;;;77.15;60.00;;;15.40;99.90;;;;;;5029288;28;20057;-60
2022/05/19 02:02:21;;;;;;;85.25;68.25;;;15.40;99.90;;;;;;5029343;28;20041;-60
2022/05/19 02:04:59;;;;;;;94.25;76.25;;;15.30;99.90;;;;;;5028407;28;20045;-60
2022/05/19 02:07:30;;;;;;;89.57;75.88;;;15.40;99.90;;;;;;5011710;28;20079;-60
2022/05/19 02:10:07;;;;;;;92.75;82.25;;;15.40;99.90;;;;;;5028047;28;20153;-60
2022/05/19 02:12:34;;;;;;;94.45;83.93;;;15.30;99.90;;;;;;5028995;28;20053;-60
2022/05/19 02:15:03;;;;;;;110.15;94.78;;;15.30;99.90;;;;;;5028347;28;20348;-59
2022/05/19 02:17:31;;;;;;;113.10;95.32;;;15.40;99.90;;;;;;5061621;28;20041;-59
2022/05/19 02:20:03;;;;;;;112.82;94.18;;;15.30;99.90;;;;;;5029414;28;20049;-60
2022/05/19 02:22:33;;;;;;;118.05;96.70;;;15.40;99.90;;;;;;5028096;28;20038;-60
2022/05/19 02:25:14;;;;;;;88.40;76.20;;;15.20;99.90;;;;;;5029193;28;20052;-60
2022/05/19 02:27:43;;;;;;;108.82;88.25;;;15.20;99.90;;;;;;5029435;28;20399;-60
2022/05/19 02:30:15;;;;;;;113.00;91.22;;;15.20;99.90;;;;;;5061371;28;20392;-60
2022/05/19 02:32:41;;;;;;;111.18;93.72;;;15.30;99.90;;;;;;5029811;28;20045;-59
2022/05/19 02:35:08;;;;;;;99.80;83.38;;;15.30;99.90;;;;;;5032603;28;20068;-59
2022/05/19 02:37:34;;;;;;;105.88;87.13;;;15.30;99.90;;;;;;5032240;28;20459;-60
2022/05/19 02:40:00;;;;;;;108.47;88.50;;;15.40;99.90;;;;;;5033193;28;20041;-60
2022/05/19 02:42:26;;;;;;;113.00;92.47;;;15.40;99.90;;;;;;5048014;28;20045;-60
2022/05/19 02:44:52;;;;;;;104.18;89.57;;;15.40;99.90;;;;;;5047814;28;20638;-60
2022/05/19 02:47:17;;;;;;;100.43;84.35;;;15.30;99.90;;;;;;5032313;28;20181;-59
2022/05/19 02:49:44;;;;;;;108.25;89.40;;;15.30;99.90;;;;;;5031204;28;20041;-59
2022/05/19 02:52:11;;;;;;;110.55;92.85;;;15.30;99.90;;;;;;5031094;28;20041;-59
2022/05/19 02:54:36;;;;;;;118.38;93.88;;;15.30;99.90;;;;;;5048055;28;20041;-59
2022/05/19 02:57:03;;;;;;;99.82;81.07;;;15.40;99.90;;;;;;5014452;28;20067;-60
2022/05/19 02:59:30;;;;;;;112.22;90.78;;;15.50;99.90;;;;;;5063943;28;20061;-60
2022/05/19 03:01:56;;;;;;;116.70;95.00;;;15.50;99.90;;;;;;5030858;28;20046;-60
2022/05/19 03:04:22;;;;;;;112.38;88.82;;;15.60;99.90;;;;;;5032354;28;20539;-60
2022/05/19 03:06:48;;;;;;;107.45;84.40;;;15.80;99.90;;;;;;5031067;28;20045;-59
2022/05/19 03:09:14;;;;;;;100.20;76.78;;;15.90;99.90;;;;;;5032129;28;20045;-59
2022/05/19 03:11:39;;;;;;;101.65;81.20;;;16.00;99.90;;;;;;5032063;28;20045;-60
2022/05/19 03:14:05;;;;;;;102.45;82.10;;;16.00;99.90;;;;;;5032500;28;20049;-59
2022/05/19 03:16:31;;;;;;;112.30;89.93;;;16.10;99.90;;;;;;5030721;28;20067;-60
2022/05/19 03:18:56;;;;;;;99.25;78.93;;;16.10;99.90;;;;;;5032387;28;20037;-60
2022/05/19 03:21:22;;;;;;;100.85;76.63;;;16.20;99.90;;;;;;5031784;28;20045;-60
2022/05/19 03:23:48;;;;;;;106.30;82.07;;;16.10;99.90;;;;;;5032084;28;20038;-60
2022/05/19 03:26:13;;;;;;;111.40;86.65;;;16.30;99.90;;;;;;5031937;28;20171;-60
2022/05/19 03:28:39;;;;;;;105.78;82.15;;;16.30;99.90;;;;;;5013992;28;20071;-60
2022/05/19 03:31:05;;;;;;;108.70;89.35;;;16.30;99.90;;;;;;5014098;28;20124;-60
2022/05/19 03:33:30;;;;;;;105.72;83.70;;;16.30;99.90;;;;;;5013952;28;20461;-60
2022/05/19 03:36:01;;;;;;;101.30;78.18;;;16.40;99.90;;;;;;5014319;28;20499;-59
2022/05/19 03:38:28;;;;;;;101.03;84.15;;;16.30;99.90;;;;;;5031991;28;20052;-59
2022/05/19 03:40:54;;;;;;;105.53;82.93;;;16.40;99.90;;;;;;5030168;28;20046;-60
2022/05/19 03:43:20;;;;;;;114.00;88.10;;;16.30;99.90;;;;;;5046705;28;20045;-59
2022/05/19 03:45:46;;;;;;;104.55;86.07;;;16.30;99.90;;;;;;5030778;28;20102;-59
2022/05/19 03:48:12;;;;;;;92.95;74.22;;;16.30;99.90;;;;;;5031722;28;20543;-60
2022/05/19 03:50:38;;;;;;;97.80;79.97;;;16.30;99.90;;;;;;5031614;28;20171;-59
2022/05/19 03:53:04;;;;;;;96.57;80.10;;;16.40;99.90;;;;;;5031346;28;20033;-59
2022/05/19 03:55:30;;;;;;;101.18;81.07;;;16.40;99.90;;;;;;5029683;28;20056;-59
2022/05/19 03:57:56;;;;;;;88.95;74.30;;;16.30;99.90;;;;;;5031264;28;20048;-60
2022/05/19 04:00:22;;;;;;;87.50;71.45;;;16.50;99.90;;;;;;5031013;28;20419;-60
2022/05/19 04:02:48;;;;;;;92.03;74.50;;;16.50;99.90;;;;;;5031323;28;20116;-60
2022/05/19 04:05:14;;;;;;;91.82;76.80;;;16.40;99.90;;;;;;5030876;28;20117;-60
2022/05/19 04:07:41;;;;;;;91.95;72.50;;;16.50;99.90;;;;;;5029785;28;20095;-60
2022/05/19 04:10:09;;;;;;;84.40;67.60;;;16.60;99.90;;;;;;5029526;28;20045;-60
2022/05/19 04:12:35;;;;;;;84.63;69.53;;;16.60;99.90;;;;;;5012965;28;20045;-60
2022/05/19 04:15:03;;;;;;;90.90;71.53;;;16.60;99.90;;;;;;5031110;28;20464;-61
2022/05/19 04:17:33;;;;;;;78.05;64.00;;;16.80;99.90;;;;;;5062622;28;20128;-60
2022/05/19 04:19:59;;;;;;;84.53;71.68;;;16.70;99.90;;;;;;5031398;28;20041;-58
2022/05/19 04:22:25;;;;;;;82.38;68.45;;;16.80;99.90;;;;;;5030871;28;20487;-58
2022/05/19 04:24:51;;;;;;;76.75;62.88;;;16.90;99.90;;;;;;5031863;28;20046;-60
2022/05/19 04:27:16;;;;;;;80.55;67.45;;;16.80;99.90;;;;;;5028337;28;20091;-59
2022/05/19 04:29:42;;;;;;;82.18;67.53;;;16.90;99.90;;;;;;5029734;28;20076;-58
2022/05/19 04:32:08;;;;;;;76.82;65.18;;;16.90;99.90;;;;;;5011886;28;20037;-58
2022/05/19 04:34:33;;;;;;;60.58;50.67;;;16.80;99.90;;;;;;5029661;28;20076;-58
2022/05/19 04:36:59;;;;;;;54.55;47.85;;;17.00;99.90;;;;;;5062427;28;20046;-60
2022/05/19 04:39:25;;;;;;;44.40;37.10;;;17.10;99.90;;;;;;5028215;28;20037;-59
2022/05/19 04:41:50;;;;;;;53.45;43.97;;;17.20;99.90;;;;;;5028494;28;20068;-60
2022/05/19 04:44:20;;;;;;;49.50;42.42;;;17.30;99.90;;;;;;5030226;28;20033;-60
2022/05/19 04:46:46;;;;;;;52.85;42.72;;;17.30;99.90;;;;;;5030195;28;20450;-59
2022/05/19 04:49:11;;;;;;;50.38;42.08;;;17.40;99.90;;;;;;5028651;28;20041;-59
2022/05/19 04:51:37;;;;;;;47.42;40.05;;;17.50;99.90;;;;;;5012338;28;20064;-59
2022/05/19 04:54:03;;;;;;;47.75;41.95;;;17.50;99.90;;;;;;5030045;28;20506;-59
2022/05/19 04:56:30;;;;;;;47.33;39.92;;;17.60;99.90;;;;;;5029736;28;20446;-60
2022/05/19 04:58:57;;;;;;;44.47;39.63;;;17.60;99.90;;;;;;5028325;28;20622;-60
2022/05/19 05:01:22;;;;;;;40.88;36.30;;;17.70;99.90;;;;;;5029711;28;20116;-60
2022/05/19 05:03:48;;;;;;;35.33;30.23;;;17.70;99.90;;;;;;5061548;28;20144;-59
2022/05/19 05:06:14;;;;;;;39.75;33.03;;;17.90;99.90;;;;;;5028320;28;20045;-60
2022/05/19 05:08:40;;;;;;;35.17;31.38;;;17.90;99.90;;;;;;5029727;28;20535;-59
2022/05/19 05:11:05;;;;;;;35.95;31.25;;;18.00;99.90;;;;;;5029515;28;20048;-59
2022/05/19 05:13:31;;;;;;;38.20;34.13;;;18.20;99.90;;;;;;5029435;28;20139;-60
2022/05/19 05:15:58;;;;;;;40.20;33.67;;;18.30;99.90;;;;;;5029177;28;20048;-60
2022/05/19 05:18:24;;;;;;;38.72;32.53;;;18.40;99.90;;;;;;5061825;28;20400;-59
2022/05/19 05:20:50;;;;;;;39.85;33.85;;;18.50;99.90;;;;;;5029398;28;20038;-59
2022/05/19 05:23:16;;;;;;;36.58;32.42;;;18.50;99.90;;;;;;5029075;28;20076;-60
2022/05/19 05:25:42;;;;;;;37.80;32.92;;;18.60;99.90;;;;;;4995138;28;20488;-59
2022/05/19 05:28:08;;;;;;;39.33;34.72;;;18.70;99.90;;;;;;5028196;28;20558;-59
2022/05/19 05:30:34;;;;;;;40.38;36.13;;;18.90;99.90;;;;;;5027887;28;20401;-59
2022/05/19 05:33:11;;;;;;;40.03;35.15;;;18.90;99.90;;;;;;5027957;28;20049;-59
2022/05/19 05:35:36;;;;;;;39.10;34.65;;;19.00;99.90;;;;;;5029131;28;20037;-60
2022/05/19 05:38:02;;;;;;;37.13;33.05;;;19.10;99.90;;;;;;5027831;28;20049;-60
2022/05/19 05:40:28;;;;;;;37.95;33.83;;;19.20;99.90;;;;;;5029252;28;20490;-59
2022/05/19 05:42:54;;;;;;;36.17;32.28;;;19.50;99.90;;;;;;5028376;28;20041;-59
2022/05/19 05:45:20;;;;;;;34.75;31.00;;;19.60;99.90;;;;;;5029020;28;20045;-60
2022/05/19 05:47:46;;;;;;;34.92;31.13;;;19.80;99.90;;;;;;5028919;28;20069;-59
2022/05/19 05:50:12;;;;;;;36.72;31.88;;;19.90;99.90;;;;;;5011460;28;20045;-61
2022/05/19 05:52:38;;;;;;;34.17;30.52;;;20.00;99.90;;;;;;5028101;28;20515;-60
2022/05/19 05:55:04;;;;;;;32.33;29.02;;;20.00;99.90;;;;;;5027669;28;20053;-60
2022/05/19 05:57:29;;;;;;;34.63;30.90;;;20.30;99.90;;;;;;5028818;28;20034;-60
2022/05/19 05:59:56;;;;;;;37.85;31.08;;;20.50;99.90;;;;;;5028907;28;20528;-60
2022/05/19 06:02:22;;;;;;;36.58;31.63;;;20.40;99.90;;;;;;5029602;28;20114;-60
2022/05/19 06:04:48;;;;;;;38.30;34.17;;;20.30;99.90;;;;;;5044030;28;20056;-60
2022/05/19 06:07:13;;;;;;;38.67;34.83;;;20.20;99.90;;;;;;5011342;28;20042;-60
2022/05/19 06:09:39;;;;;;;37.85;33.83;;;20.10;99.90;;;;;;5031243;28;20075;-60
2022/05/19 06:12:05;;;;;;;37.42;33.42;;;20.30;99.90;;;;;;5047834;28;20040;-61
2022/05/19 06:14:31;;;;;;;37.53;33.65;;;20.40;99.90;;;;;;5031761;28;20037;-60
2022/05/19 06:16:58;;;;;;;38.22;33.97;;;20.50;99.90;;;;;;5031237;28;20041;-60
2022/05/19 06:19:23;;;;;;;35.45;31.20;;;20.40;99.90;;;;;;5014625;28;20052;-61
2022/05/19 06:21:49;;;;;;;34.47;31.10;;;20.40;99.90;;;;;;5031137;28;20041;-60
2022/05/19 06:24:15;;;;;;;33.63;30.17;;;20.50;99.90;;;;;;5015112;28;20050;-59
2022/05/19 06:26:41;;;;;;;32.15;28.75;;;20.60;99.90;;;;;;5030990;28;20042;-60
2022/05/19 06:29:08;;;;;;;32.45;29.08;;;20.60;99.90;;;;;;5031323;28;20068;-60
2022/05/19 06:31:33;;;;;;;31.92;28.55;;;20.70;99.90;;;;;;5031163;28;20858;-60
2022/05/19 06:34:01;;;;;;;29.98;26.95;;;20.80;99.90;;;;;;5031337;28;20490;-60
2022/05/19 06:36:27;;;;;;;29.73;26.60;;;21.00;99.90;;;;;;5031171;28;20749;-60
2022/05/19 06:38:53;;;;;;;29.95;26.88;;;21.10;99.90;;;;;;5031063;28;20046;-60
2022/05/19 06:44:05;;;;;;;30.40;27.02;;;20.80;99.90;;;;;;5031369;28;20045;-59
2022/05/19 06:46:30;;;;;;;30.33;25.40;;;20.80;99.90;;;;;;5031122;28;20090;-59
2022/05/19 06:48:57;;;;;;;26.60;23.73;;;20.80;99.90;;;;;;5030732;28;20045;-60
2022/05/19 06:51:22;;;;;;;28.02;24.85;;;20.80;99.90;;;;;;5047420;28;20037;-60
2022/05/19 06:53:49;;;;;;;26.20;23.50;;;20.70;99.90;;;;;;5031032;28;20080;-60
2022/05/19 06:56:15;;;;;;;22.70;20.40;;;21.00;99.90;;;;;;5031982;28;20097;-60
2022/05/19 06:58:40;;;;;;;22.30;19.85;;;20.90;99.90;;;;;;5047641;28;20136;-60
2022/05/19 07:01:06;;;;;;;20.83;18.48;;;20.90;99.90;;;;;;5064345;28;20111;-60
2022/05/19 07:03:32;;;;;;;20.10;17.92;;;20.80;99.90;;;;;;5030867;28;20597;-59
2022/05/19 07:05:58;;;;;;;20.27;18.05;;;21.30;99.90;;;;;;5014406;28;20313;-60
2022/05/19 07:08:23;;;;;;;20.25;18.02;;;21.40;99.90;;;;;;5032045;28;20049;-60
2022/05/19 07:10:49;;;;;;;20.45;18.50;;;21.40;99.90;;;;;;5047129;28;20530;-60
2022/05/19 07:13:16;;;;;;;19.55;17.45;;;21.20;99.90;;;;;;5031987;28;20037;-59
2022/05/19 07:15:41;;;;;;;20.85;18.83;;;21.40;99.90;;;;;;5030399;28;20045;-59
2022/05/19 07:18:10;;;;;;;22.48;19.95;;;21.40;99.90;;;;;;5031594;28;20052;-60
2022/05/19 07:20:47;;;;;;;23.45;19.95;;;20.90;99.90;;;;;;5031616;28;20425;-60
2022/05/19 07:23:16;;;;;;;23.70;21.02;;;20.60;99.90;;;;;;5063649;28;20057;-60
2022/05/19 07:25:43;;;;;;;24.13;21.67;;;20.50;99.90;;;;;;5064208;28;20045;-60
2022/05/19 07:28:10;;;;;;;24.60;22.02;;;20.20;99.90;;;;;;5030264;28;20046;-60
2022/05/19 07:30:37;;;;;;;28.65;22.98;;;20.10;99.90;;;;;;5030413;28;20041;-59
2022/05/19 07:33:03;;;;;;;26.70;23.38;;;19.90;99.90;;;;;;5013873;28;20073;-60
2022/05/19 07:35:29;;;;;;;29.42;23.52;;;19.70;99.90;;;;;;5062925;28;20084;-60
2022/05/19 07:37:54;;;;;;;27.98;22.65;;;19.50;99.90;;;;;;5063325;28;20235;-60
2022/05/19 07:40:21;;;;;;;29.05;22.52;;;19.50;99.90;;;;;;5030203;28;20124;-60
2022/05/19 07:42:46;;;;;;;25.23;21.60;;;19.40;99.90;;;;;;5029930;28;20046;-60
2022/05/19 07:45:14;;;;;;;27.95;21.90;;;19.30;99.90;;;;;;5031811;28;20090;-60
2022/05/19 07:47:40;;;;;;;26.95;23.20;;;19.20;99.90;;;;;;5029815;28;20060;-59
2022/05/19 07:50:07;;;;;;;27.90;22.75;;;19.20;99.90;;;;;;5013434;28;20053;-60
2022/05/19 07:52:32;;;;;;;27.55;22.77;;;19.30;99.90;;;;;;5013266;28;20114;-59
2022/05/19 07:54:58;;;;;;;27.45;22.33;;;19.20;99.90;;;;;;5046365;28;20057;-59
2022/05/19 07:57:24;;;;;;;26.80;18.92;;;19.10;99.90;;;;;;5029626;28;20041;-59
2022/05/19 07:59:50;;;;;;;24.58;17.30;;;19.00;99.90;;;;;;5030932;28;20092;-60
2022/05/19 08:02:16;;;;;;;21.85;15.25;;;19.00;99.90;;;;;;5029610;28;20045;-60
2022/05/19 08:04:41;;;;;;;22.70;15.02;;;18.90;99.90;;;;;;5029444;28;20037;-60
2022/05/19 08:07:07;;;;;;;26.02;14.05;;;18.80;99.90;;;;;;5062618;28;20458;-60
2022/05/19 08:17:51;;;;;;;27.23;12.30;;;18.70;99.90;;;;;;5029191;28;20057;-60
2022/05/19 08:20:18;;;;;;;26.67;12.40;;;18.80;99.90;;;;;;5029016;28;20428;-59
2022/05/19 08:22:44;;;;;;;26.27;11.18;;;18.80;99.90;;;;;;5012756;28;20045;-60
2022/05/19 08:25:10;;;;;;;25.88;11.30;;;18.80;99.90;;;;;;5030515;28;20052;-59
2022/05/19 08:27:36;;;;;;;26.00;11.52;;;18.80;99.90;;;;;;5028692;28;20041;-59
2022/05/19 08:30:02;;;;;;;29.75;11.50;;;18.90;99.90;;;;;;5028527;28;20041;-60
2022/05/19 08:32:27;;;;;;;24.02;10.80;;;18.90;99.90;;;;;;5028276;28;20055;-60
2022/05/19 08:34:53;;;;;;;22.25;10.55;;;18.70;99.90;;;;;;5028812;28;20049;-60
2022/05/19 08:37:19;;;;;;;29.08;11.70;;;18.60;99.90;;;;;;5029621;28;20045;-60
2022/05/19 08:39:44;;;;;;;27.08;11.13;;;18.60;99.90;;;;;;5028826;28;20132;-59
2022/05/19 08:42:13;;;;;;;23.70;9.95;;;18.60;99.90;;;;;;5028517;28;20495;-60
2022/05/19 08:44:45;;;;;;;21.92;9.57;;;18.60;99.90;;;;;;5028816;28;20116;-60
2022/05/19 08:47:13;;;;;;;19.85;10.20;;;18.60;99.90;;;;;;5061418;28;20463;-60
2022/05/19 08:49:46;;;;;;;20.45;10.25;;;18.50;99.90;;;;;;5011870;28;20044;-60
2022/05/19 08:52:16;;;;;;;21.65;11.82;;;18.80;99.90;;;;;;5011963;28;20049;-60
2022/05/19 08:54:48;;;;;;;21.02;10.20;;;18.90;99.90;;;;;;5029742;28;20508;-60
2022/05/19 08:57:17;;;;;;;18.65;9.50;;;18.90;99.90;;;;;;5028552;28;20150;-59
2022/05/19 09:00:05;;;;;;;17.23;8.48;;;19.10;99.90;;;;;;5029423;28;20666;-60
2022/05/19 09:03:04;;;;;;;18.10;9.10;;;19.10;99.90;;;;;;5028186;28;20164;-60
2022/05/19 09:06:04;;;;;;;17.30;9.45;;;19.20;99.90;;;;;;5029898;28;20041;-59
2022/05/19 09:08:59;;;;;;;17.60;10.05;;;19.40;99.90;;;;;;5028333;28;20073;-59
2022/05/19 09:11:38;;;;;;;22.42;11.77;;;19.60;99.90;;;;;;5028003;28;20049;-60
2022/05/19 09:14:37;;;;;;;20.02;12.50;;;19.80;99.90;;;;;;5028171;28;20047;-60
2022/05/19 09:17:07;;;;;;;23.60;14.75;;;20.20;99.90;;;;;;5006065;28;20389;-60
2022/05/19 09:19:48;;;;;;;19.25;16.60;;;20.50;99.90;;;;;;5027934;28;20049;-60
2022/05/19 09:22:18;;;;;;;22.35;16.80;;;20.80;99.90;;;;;;5028349;28;20072;-60
2022/05/19 09:24:46;;;;;;;20.10;16.77;;;20.90;99.90;;;;;;5028489;28;20052;-60
2022/05/19 09:27:12;;;;;;;22.35;16.58;;;21.10;99.90;;;;;;5028312;28;20084;-60
2022/05/19 09:29:51;;;;;;;21.92;15.55;;;21.40;99.90;;;;;;5027865;28;20064;-60
2022/05/19 09:32:27;;;;;;;21.52;15.25;;;21.60;99.90;;;;;;5061643;28;20037;-60
2022/05/19 09:35:23;;;;;;;20.02;14.65;;;21.80;99.90;;;;;;5029540;28;20488;-60
2022/05/19 09:38:12;;;;;;;22.35;13.43;;;22.10;99.90;;;;;;5028741;28;20045;-60
2022/05/19 09:40:42;;;;;;;17.65;12.98;;;22.20;99.90;;;;;;5029389;28;20120;-59
2022/05/19 09:43:18;;;;;;;19.17;12.63;;;22.40;99.90;;;;;;5029646;28;20072;-60
2022/05/19 09:46:04;;;;;;;17.52;12.05;;;22.80;99.90;;;;;;5033818;28;20044;-60
2022/05/19 09:48:37;;;;;;;17.73;12.65;;;23.20;99.90;;;;;;5065881;28;20055;-60
2022/05/19 09:51:07;;;;;;;;;;;23.40;99.90;;;;;;5032727;28;20034;-60
2022/05/19 09:53:41;;;;;;;18.92;14.95;;;23.00;99.90;;;;;;5031804;28;19925;-60
2022/05/19 09:56:14;;;;;;;22.70;16.95;;;23.00;99.90;;;;;;5031269;28;20511;-60
2022/05/19 09:58:45;;;;;;;18.23;16.27;;;23.00;99.90;;;;;;5032657;28;20112;-60
2022/05/19 10:01:28;;;;;;;20.92;16.25;;;22.80;99.90;;;;;;5048131;28;20041;-60
2022/05/19 10:04:00;;;;;;;20.88;17.83;;;22.50;99.90;;;;;;5031342;28;20042;-60
2022/05/19 10:06:51;;;;;;;23.75;18.92;;;22.20;99.90;;;;;;5031352;28;20454;-60
2022/05/19 10:09:41;;;;;;;23.10;20.00;;;22.30;99.90;;;;;;5031086;28;20045;-60
2022/05/19 10:12:14;;;;;;;22.77;19.23;;;22.40;99.90;;;;;;5032610;28;20050;-60
2022/05/19 10:14:41;;;;;;;21.05;18.75;;;22.50;99.90;;;;;;5064529;28;20571;-59
2022/05/19 10:17:13;;;;;;;23.35;20.83;;;22.60;99.90;;;;;;5047805;28;20045;-59
2022/05/19 10:19:50;;;;;;;24.67;22.08;;;22.50;99.90;;;;;;5032112;28;20056;-59
2022/05/19 10:22:50;;;;;;;27.98;23.38;;;22.60;99.90;;;;;;5032609;28;20454;-59
2022/05/19 10:25:50;;;;;;;29.92;24.42;;;22.70;99.90;;;;;;5047386;28;20046;-60
2022/05/19 10:31:12;;;;;;;26.70;23.75;;;22.70;99.90;;;;;;5030964;28;20579;-60
2022/05/19 10:34:02;;;;;;;33.92;24.23;;;22.80;99.90;;;;;;5030734;28;20475;-59
2022/05/19 10:36:48;;;;;;;24.90;22.27;;;23.00;99.90;;;;;;5030801;28;20045;-60
2022/05/19 10:39:22;;;;;;;27.10;24.17;;;23.20;99.90;;;;;;5032173;28;20040;-59
2022/05/19 10:41:51;;;;;;;27.90;23.42;;;23.40;99.90;;;;;;5030522;28;20033;-59
2022/05/19 10:44:38;;;;;;;24.55;21.98;;;23.60;99.90;;;;;;5030587;28;20041;-60
2022/05/19 10:47:22;;;;;;;26.05;21.35;;;24.10;99.90;;;;;;5031964;28;20199;-59
2022/05/19 10:49:58;;;;;;;27.70;23.15;;;24.50;99.90;;;;;;5032141;28;20478;-59
2022/05/19 10:52:41;;;;;;;25.52;22.83;;;24.50;99.90;;;;;;5032055;28;20037;-59
2022/05/19 10:55:51;;;;;;;26.13;23.33;;;24.30;99.90;;;;;;5029690;28;20060;-59
2022/05/19 10:58:42;;;;;;;27.58;24.67;;;24.30;99.90;;;;;;5015572;28;20056;-60
2022/05/19 11:01:35;;;;;;;26.23;23.40;;;24.70;99.90;;;;;;5031571;28;20049;-60
2022/05/19 11:04:07;;;;;;;;;;;24.80;99.90;;;;;;5030681;28;20489;-60
2022/05/19 11:07:15;;;;;;;24.67;22.17;;;24.90;99.90;;;;;;5046791;28;19917;-59
2022/05/19 11:10:13;;;;;;;24.38;21.98;;;25.00;99.90;;;;;;5024606;28;20085;-60
2022/05/19 11:12:59;;;;;;;25.35;22.98;;;25.00;99.90;;;;;;5029921;28;20050;-59
2022/05/19 11:15:43;;;;;;;22.85;20.60;;;25.20;99.90;;;;;;5029139;28;20531;-60
2022/05/19 11:18:22;;;;;;;26.48;23.92;;;24.90;99.90;;;;;;5029748;28;20048;-59
2022/05/19 11:21:03;;;;;;;27.38;24.48;;;24.30;99.90;;;;;;5029832;28;20060;-60
2022/05/19 11:23:48;;;;;;;22.42;20.15;;;24.00;99.90;;;;;;5030994;28;20084;-60
2022/05/19 11:26:38;;;;;;;18.35;16.42;;;23.90;99.90;;;;;;5029610;28;20049;-60
2022/05/19 11:29:35;;;;;;;16.30;13.98;;;23.50;99.90;;;;;;5030336;28;20041;-60
2022/05/19 11:32:07;;;;;;;16.98;12.02;;;23.40;99.90;;;;;;5023941;28;20136;-61
2022/05/19 11:35:09;;;;;;;12.90;11.02;;;23.20;99.90;;;;;;5031057;28;20037;-61
2022/05/19 11:38:01;;;;;;;10.85;9.70;;;23.80;99.90;;;;;;5012792;28;20337;-60
2022/05/19 11:41:13;;;;;;;11.43;10.32;;;24.50;99.90;;;;;;5062759;28;20423;-61
2022/05/19 11:43:55;;;;;;;13.32;10.82;;;24.30;99.90;;;;;;5023495;28;20124;-61
2022/05/19 11:46:29;;;;;;;13.87;12.40;;;24.10;99.90;;;;;;5029458;28;20045;-61
2022/05/19 11:55:30;;;;;;;10.60;8.95;;;24.20;99.90;;;;;;5062596;28;20105;-61
2022/05/19 11:58:10;;;;;;;10.33;9.33;;;24.00;99.90;;;;;;5029237;28;20048;-61
2022/05/19 12:01:01;;;;;;;10.88;9.82;;;23.70;99.90;;;;;;5030262;28;20160;-61
2022/05/19 12:03:48;;;;;;;11.73;10.52;;;23.60;99.90;;;;;;5029033;28;20176;-61
2022/05/19 12:06:48;;;;;;;14.15;11.73;;;23.50;99.90;;;;;;5011483;28;20047;-62
2022/05/19 12:09:20;;;;;;;13.77;11.48;;;23.80;99.90;;;;;;5020311;28;20141;-61
2022/05/19 12:11:46;;;;;;;12.73;11.43;;;24.00;99.90;;;;;;5028664;28;20045;-61
2022/05/19 12:14:16;;;;;;;13.20;11.90;;;24.50;99.90;;;;;;5028928;28;20045;-61
2022/05/19 12:16:45;;;;;;;13.50;12.10;;;25.00;99.90;;;;;;5028532;28;20132;-61
2022/05/19 12:19:52;;;;;;;13.98;12.52;;;25.50;99.90;;;;;;5028781;28;20129;-61
2022/05/19 12:22:24;;;;;;;13.75;12.45;;;25.90;99.90;;;;;;5045401;28;20041;-61
2022/05/19 12:24:52;;;;;;;16.05;12.65;;;26.00;99.90;;;;;;5028820;28;20103;-61
2022/05/19 12:27:36;;;;;;;15.50;13.98;;;25.70;99.90;;;;;;5028163;28;20053;-61
2022/05/19 12:33:28;;;;;;;16.08;14.27;;;25.80;99.90;;;;;;5028682;28;20045;-59
2022/05/19 12:36:16;;;;;;;16.00;14.40;;;25.70;99.90;;;;;;5028470;28;20496;-61
2022/05/19 12:38:44;;;;;;;16.83;14.30;;;25.70;99.90;;;;;;5028324;28;20041;-61
2022/05/19 12:41:23;;;;;;;16.17;14.48;;;25.50;99.90;;;;;;5028233;28;20040;-61
2022/05/19 12:43:51;;;;;;;14.52;13.23;;;25.50;99.90;;;;;;5028213;28;20041;-61
2022/05/19 12:46:38;;;;;;;12.63;11.43;;;25.30;99.90;;;;;;5061919;28;20531;-61
2022/05/19 12:49:25;;;;;;;14.63;12.32;;;25.50;99.90;;;;;;5028522;28;20085;-60
2022/05/19 12:52:17;;;;;;;14.07;12.68;;;25.00;99.90;;;;;;5028083;28;20084;-61
2022/05/19 12:55:15;;;;;;;13.10;11.70;;;25.20;99.90;;;;;;5028271;28;20075;-61
2022/05/19 12:57:41;;;;;;;13.27;12.05;;;25.20;99.90;;;;;;5028019;28;20081;-61
2022/05/19 13:00:41;;;;;;;13.88;12.57;;;25.20;99.90;;;;;;5027938;28;20085;-60
2022/05/19 13:03:15;;;;;;;14.57;13.10;;;25.00;99.90;;;;;;5011057;28;20110;-61
2022/05/19 13:05:56;;;;;;;15.13;13.52;;;24.80;99.90;;;;;;5027945;28;20038;-61
2022/05/19 13:08:36;;;;;;;15.65;14.05;;;24.60;99.90;;;;;;5027886;28;20092;-61
2022/05/19 13:11:09;;;;;;;16.23;14.52;;;24.20;99.90;;;;;;5027606;28;20049;-61
2022/05/19 13:13:40;;;;;;;19.08;15.82;;;24.10;99.90;;;;;;5029273;28;20052;-61
2022/05/19 13:16:30;;;;;;;18.33;16.50;;;24.00;99.90;;;;;;5027955;28;20045;-61